createdAt,value
2019-05-15T00:02:14.784Z,3.12
2019-05-15T00:04:49.190Z,2.65
2019-05-15T00:07:22.314Z,2.20
2019-05-15T00:09:55.163Z,2.20
2019-05-15T00:12:28.540Z,2.47
2019-05-15T00:15:01.477Z,2.05
2019-05-15T00:17:34.416Z,2.30
2019-05-15T00:20:09.868Z,1.85
2019-05-15T00:22:42.244Z,2.30
2019-05-15T00:25:15.266Z,2.20
2019-05-15T00:27:49.096Z,2.10
2019-05-15T00:30:22.265Z,2.47
2019-05-15T00:32:55.192Z,2.70
2019-05-15T00:35:30.618Z,2.17
2019-05-15T00:38:02.595Z,2.27
2019-05-15T00:40:35.455Z,2.33
2019-05-15T00:43:08.788Z,2.80
2019-05-15T00:45:44.417Z,2.72
2019-05-15T00:48:18.359Z,2.30
2019-05-15T00:50:52.032Z,2.10
2019-05-15T00:53:24.832Z,2.40
2019-05-15T00:55:58.063Z,2.50
2019-05-15T00:58:31.081Z,1.80
2019-05-15T01:01:04.011Z,2.20
2019-05-15T01:03:38.801Z,2.30
2019-05-15T01:06:11.304Z,2.17
2019-05-15T01:08:44.224Z,2.12
2019-05-15T01:11:19.116Z,1.42
2019-05-15T01:13:51.528Z,1.90
2019-05-15T01:16:24.319Z,2.02
2019-05-15T01:18:58.540Z,2.02
2019-05-15T01:21:31.611Z,2.30
2019-05-15T01:24:04.454Z,2.27
2019-05-15T01:26:38.638Z,2.42
2019-05-15T01:29:12.323Z,2.17
2019-05-15T01:31:48.517Z,2.10
2019-05-15T01:34:21.122Z,2.17
2019-05-15T01:36:54.015Z,2.15
2019-05-15T01:39:28.922Z,2.45
2019-05-15T01:42:01.395Z,2.20
2019-05-15T01:44:34.273Z,2.30
2019-05-15T01:47:08.509Z,2.35
2019-05-15T01:49:41.501Z,2.37
2019-05-15T01:52:14.574Z,2.10
2019-05-15T01:54:48.868Z,2.37
2019-05-15T01:57:21.850Z,2.60
2019-05-15T01:59:58.277Z,2.50
2019-05-15T02:02:29.185Z,2.60
2019-05-15T02:05:02.450Z,1.82
2019-05-15T02:07:35.578Z,2.22
2019-05-15T02:10:09.613Z,2.17
2019-05-15T02:12:42.530Z,2.20
2019-05-15T02:15:15.642Z,2.20
2019-05-15T02:17:48.484Z,2.17
2019-05-15T02:20:21.299Z,1.90
2019-05-15T02:22:54.121Z,2.37
2019-05-15T02:25:28.026Z,2.67
2019-05-15T02:28:01.006Z,2.50
2019-05-15T02:30:34.545Z,2.95
2019-05-15T02:33:10.630Z,2.83
2019-05-15T02:35:42.140Z,2.40
2019-05-15T02:38:15.651Z,2.83
2019-05-15T02:40:49.420Z,2.15
2019-05-15T02:43:22.536Z,2.30
2019-05-15T02:45:55.365Z,2.37
2019-05-15T02:48:29.033Z,2.75
2019-05-15T02:51:02.021Z,2.55
2019-05-15T02:53:34.930Z,2.42
2019-05-15T02:56:09.385Z,2.60
2019-05-15T02:58:42.609Z,2.62
2019-05-15T03:01:18.748Z,2.80
2019-05-15T03:03:50.375Z,3.00
2019-05-15T03:06:23.196Z,2.72
2019-05-15T03:08:55.988Z,2.72
2019-05-15T03:11:29.645Z,2.58
2019-05-15T03:14:02.655Z,3.58
2019-05-15T03:16:39.139Z,2.52
2019-05-15T03:19:10.385Z,2.22
2019-05-15T03:21:43.211Z,2.20
2019-05-15T03:24:19.193Z,2.80
2019-05-15T03:26:50.583Z,2.60
2019-05-15T03:29:23.419Z,2.30
2019-05-15T03:32:09.427Z,3.22
2019-05-15T03:34:38.121Z,2.92
2019-05-15T03:37:11.563Z,2.75
2019-05-15T03:39:40.614Z,3.22
2019-05-15T03:42:13.420Z,2.37
2019-05-15T03:44:46.434Z,3.10
2019-05-15T03:47:19.580Z,2.92
2019-05-15T03:49:53.559Z,2.17
2019-05-15T03:52:29.291Z,2.80
2019-05-15T03:55:00.906Z,2.62
2019-05-15T03:57:34.098Z,2.85
2019-05-15T04:00:09.616Z,2.90
2019-05-15T04:02:42.219Z,3.03
2019-05-15T04:05:15.308Z,3.27
2019-05-15T04:07:49.619Z,2.75
2019-05-15T04:10:22.710Z,3.50
2019-05-15T04:12:59.683Z,2.90
2019-05-15T04:15:31.106Z,2.80
2019-05-15T04:18:03.957Z,3.30
2019-05-15T04:20:39.964Z,3.25
2019-05-15T04:23:11.345Z,2.72
2019-05-15T04:25:44.470Z,2.63
2019-05-15T04:28:21.209Z,3.05
2019-05-15T04:30:54.024Z,2.75
2019-05-15T04:33:29.335Z,3.30
2019-05-15T04:36:01.413Z,3.12
2019-05-15T04:38:34.247Z,2.67
2019-05-15T04:41:09.517Z,2.65
2019-05-15T04:43:45.088Z,2.98
2019-05-15T04:46:19.711Z,3.00
2019-05-15T04:48:51.933Z,2.70
2019-05-15T04:51:24.802Z,3.30
2019-05-15T04:53:58.655Z,2.90
2019-05-15T04:56:31.610Z,3.05
2019-05-15T04:59:04.406Z,3.50
2019-05-15T05:01:40.200Z,2.80
2019-05-15T05:04:11.732Z,3.10
2019-05-15T05:06:45.060Z,2.80
2019-05-15T05:09:19.810Z,2.52
2019-05-15T05:11:52.553Z,2.75
2019-05-15T05:14:28.331Z,3.37
2019-05-15T05:16:59.950Z,3.17
2019-05-15T05:19:32.863Z,2.83
2019-05-15T05:22:07.721Z,2.80
2019-05-15T05:24:40.242Z,2.92
2019-05-15T05:27:13.221Z,3.10
2019-05-15T05:29:48.029Z,3.62
2019-05-15T05:32:30.884Z,3.60
2019-05-15T05:34:55.265Z,2.97
2019-05-15T05:37:28.164Z,4.10
2019-05-15T05:40:01.070Z,3.60
2019-05-15T05:42:33.956Z,2.95
2019-05-15T05:45:09.399Z,3.12
2019-05-15T05:47:41.874Z,2.20
2019-05-15T05:50:18.230Z,2.80
2019-05-15T05:52:51.236Z,3.00
2019-05-15T05:55:24.027Z,3.00
2019-05-15T05:57:58.392Z,3.22
2019-05-15T06:00:43.323Z,3.30
2019-05-15T06:03:19.250Z,3.52
2019-05-15T06:05:50.713Z,3.05
2019-05-15T06:08:23.526Z,3.10
2019-05-15T06:10:58.565Z,2.87
2019-05-15T06:13:30.950Z,3.10
2019-05-15T06:16:04.041Z,2.95
2019-05-15T06:18:38.873Z,2.50
2019-05-15T06:21:11.479Z,2.05
2019-05-15T06:23:48.357Z,2.20
2019-05-15T06:26:20.052Z,2.70
2019-05-15T06:28:52.926Z,2.83
2019-05-15T06:31:27.977Z,2.45
2019-05-15T06:34:00.218Z,3.12
2019-05-15T06:36:33.022Z,3.25
2019-05-15T06:39:08.474Z,3.90
2019-05-15T06:41:41.391Z,5.45
2019-05-15T06:44:14.204Z,3.77
2019-05-15T06:46:48.335Z,4.08
2019-05-15T06:49:21.405Z,3.75
2019-05-15T06:51:54.270Z,3.37
2019-05-15T06:54:28.381Z,4.10
2019-05-15T06:57:01.448Z,4.05
2019-05-15T06:59:34.322Z,3.80
2019-05-15T07:02:08.114Z,3.00
2019-05-15T07:04:41.038Z,3.12
2019-05-15T07:07:13.854Z,5.15
2019-05-15T07:09:48.639Z,7.80
2019-05-15T07:12:21.366Z,8.18
2019-05-15T07:14:55.190Z,10.30
2019-05-15T07:17:28.764Z,9.05
2019-05-15T07:20:02.028Z,6.20
2019-05-15T07:22:34.921Z,6.80
2019-05-15T07:25:08.864Z,6.40
2019-05-15T07:27:43.016Z,6.33
2019-05-15T07:30:18.621Z,3.70
2019-05-15T07:32:51.142Z,4.73
2019-05-15T07:35:24.447Z,4.58
2019-05-15T07:37:58.766Z,4.08
2019-05-15T07:40:31.801Z,3.77
2019-05-15T07:43:09.117Z,4.30
2019-05-15T07:45:43.302Z,4.75
2019-05-15T07:48:15.527Z,5.60
2019-05-15T07:50:49.694Z,4.47
2019-05-15T07:53:24.252Z,3.27
2019-05-15T07:56:01.282Z,4.28
2019-05-15T07:58:31.938Z,3.20
2019-05-15T08:01:05.876Z,4.05
2019-05-15T08:03:55.003Z,5.60
2019-05-15T08:06:13.316Z,4.78
2019-05-15T08:08:48.395Z,4.25
2019-05-15T08:11:24.481Z,4.25
2019-05-15T08:13:55.083Z,4.25
2019-05-15T08:16:28.911Z,4.67
2019-05-15T08:19:01.784Z,4.17
2019-05-15T08:21:34.608Z,4.90
2019-05-15T08:24:08.510Z,4.10
2019-05-15T08:26:45.413Z,3.55
2019-05-15T08:29:19.336Z,6.28
2019-05-15T08:31:50.637Z,4.95
2019-05-15T08:34:23.564Z,4.60
2019-05-15T08:36:58.744Z,4.55
2019-05-15T08:39:30.964Z,4.45
2019-05-15T08:42:03.821Z,3.98
2019-05-15T08:44:38.692Z,3.70
2019-05-15T08:47:11.154Z,3.35
2019-05-15T08:49:44.033Z,3.83
2019-05-15T08:52:18.982Z,3.72
2019-05-15T08:54:51.426Z,3.67
2019-05-15T08:57:24.484Z,3.45
2019-05-15T08:59:58.287Z,8.15
2019-05-15T09:02:31.299Z,4.45
2019-05-15T09:05:04.192Z,4.62
2019-05-15T09:07:38.378Z,5.28
2019-05-15T09:10:12.648Z,4.95
2019-05-15T09:12:45.942Z,4.42
2019-05-15T09:15:20.292Z,4.65
2019-05-15T09:18:08.063Z,6.97
2019-05-15T09:20:28.776Z,4.97
2019-05-15T09:23:01.718Z,6.67
2019-05-15T09:25:34.596Z,7.20
2019-05-15T09:28:08.648Z,4.78
2019-05-15T09:30:41.676Z,5.03
2019-05-15T09:33:14.624Z,4.37
2019-05-15T09:35:49.030Z,7.22
2019-05-15T09:38:22.160Z,5.60
2019-05-15T09:40:55.080Z,6.25
2019-05-15T09:43:28.523Z,5.17
2019-05-15T09:46:01.712Z,6.25
2019-05-15T09:48:34.604Z,5.60
2019-05-15T09:51:09.295Z,5.92
2019-05-15T09:53:42.363Z,8.78
2019-05-15T09:56:15.235Z,6.55
2019-05-15T09:58:48.912Z,5.30
2019-05-15T10:01:22.042Z,6.10
2019-05-15T10:03:54.862Z,6.45
2019-05-15T10:06:28.723Z,7.83
2019-05-15T10:09:01.569Z,8.38
2019-05-15T10:11:38.095Z,9.00
2019-05-15T10:14:10.228Z,9.95
2019-05-15T10:16:43.124Z,8.55
2019-05-15T10:19:18.368Z,6.97
2019-05-15T10:21:52.996Z,8.08
2019-05-15T10:24:25.301Z,7.40
2019-05-15T10:26:58.188Z,7.05
2019-05-15T10:29:31.112Z,8.43
2019-05-15T10:32:03.901Z,7.40
2019-05-15T10:34:38.469Z,6.62
2019-05-15T10:37:12.440Z,8.85
2019-05-15T10:39:45.376Z,14.78
2019-05-15T10:42:19.370Z,9.93
2019-05-15T10:44:52.405Z,7.95
2019-05-15T10:47:25.215Z,8.08
2019-05-15T10:50:00.052Z,5.75
2019-05-15T10:52:32.590Z,6.58
2019-05-15T10:55:05.636Z,6.28
2019-05-15T10:57:42.902Z,6.28
2019-05-15T11:00:14.560Z,6.47
2019-05-15T11:02:48.986Z,6.90
2019-05-15T11:05:37.371Z,7.28
2019-05-15T11:07:58.930Z,7.03
2019-05-15T11:10:31.941Z,6.22
2019-05-15T11:13:05.105Z,7.00
2019-05-15T11:15:41.961Z,8.38
2019-05-15T11:18:12.733Z,9.25
2019-05-15T11:20:48.298Z,7.55
2019-05-15T11:23:20.564Z,7.78
2019-05-15T11:25:54.633Z,7.00
2019-05-15T11:28:31.615Z,6.35
2019-05-15T11:31:02.257Z,7.08
2019-05-15T11:33:35.089Z,5.58
2019-05-15T11:36:07.881Z,6.20
2019-05-15T11:38:40.712Z,6.83
2019-05-15T11:41:13.791Z,6.92
2019-05-15T11:43:49.288Z,6.35
2019-05-15T11:46:21.153Z,6.35
2019-05-15T11:48:54.151Z,5.40
2019-05-15T11:51:29.055Z,7.20
2019-05-15T11:54:01.861Z,7.33
2019-05-15T11:56:34.763Z,8.10
2019-05-15T11:59:08.521Z,6.83
2019-05-15T12:01:41.661Z,7.15
2019-05-15T12:04:26.706Z,7.60
2019-05-15T12:06:58.698Z,7.47
2019-05-15T12:09:23.859Z,8.25
2019-05-15T12:11:56.708Z,7.15
2019-05-15T12:14:30.614Z,8.05
2019-05-15T12:17:11.288Z,7.55
2019-05-15T12:19:39.166Z,7.35
2019-05-15T12:22:12.222Z,6.75
2019-05-15T12:24:45.050Z,6.90
2019-05-15T12:27:18.481Z,5.80
2019-05-15T12:29:52.906Z,7.33
2019-05-15T12:32:31.482Z,8.70
2019-05-15T12:35:00.317Z,7.70
2019-05-15T12:37:33.185Z,8.43
2019-05-15T13:00:48.744Z,9.65
2019-05-15T13:03:21.105Z,6.97
2019-05-15T13:05:53.904Z,7.15
2019-05-15T13:08:29.136Z,6.37
2019-05-15T13:11:03.115Z,6.37
2019-05-15T13:13:37.703Z,6.08
2019-05-15T13:16:10.717Z,8.63
2019-05-15T13:18:43.502Z,9.15
2019-05-15T13:21:20.598Z,8.63
2019-05-15T13:23:51.123Z,8.43
2019-05-15T13:26:26.951Z,8.85
2019-05-15T13:28:58.645Z,7.08
2019-05-15T13:31:31.535Z,7.15
2019-05-15T13:34:04.448Z,8.05
2019-05-15T13:36:39.289Z,8.40
2019-05-15T13:39:11.783Z,7.50
2019-05-15T13:41:44.677Z,7.17
2019-05-15T13:44:18.695Z,7.35
2019-05-15T13:46:51.916Z,5.65
2019-05-15T13:49:24.756Z,7.40
2019-05-15T13:51:59.383Z,6.72
2019-05-15T13:54:32.122Z,7.58
2019-05-15T13:57:05.035Z,7.08
2019-05-15T13:59:39.192Z,7.37
2019-05-15T14:02:12.225Z,7.28
2019-05-15T14:04:45.057Z,6.47
2019-05-15T14:07:19.406Z,8.73
2019-05-15T14:09:52.624Z,7.28
2019-05-15T14:12:27.611Z,7.40
2019-05-15T14:15:01.951Z,5.72
2019-05-15T14:17:37.707Z,8.60
2019-05-15T14:20:11.793Z,8.15
2019-05-15T14:22:44.688Z,8.10
2019-05-15T14:25:18.185Z,6.60
2019-05-15T14:27:51.085Z,6.85
2019-05-15T14:30:24.205Z,7.37
2019-05-15T14:32:59.750Z,6.65
2019-05-15T14:35:31.711Z,7.47
2019-05-15T14:38:06.769Z,8.85
2019-05-15T14:40:39.460Z,7.58
2019-05-15T14:43:12.234Z,8.60
2019-05-15T14:45:45.248Z,7.85
2019-05-15T14:48:19.510Z,6.30
2019-05-15T14:50:52.335Z,7.70
2019-05-15T14:53:25.250Z,6.65
2019-05-15T14:56:00.412Z,6.87
2019-05-15T14:58:32.642Z,5.70
2019-05-15T15:01:11.495Z,5.67
2019-05-15T15:03:40.194Z,6.60
2019-05-15T15:06:13.275Z,5.55
2019-05-15T15:08:46.504Z,7.08
2019-05-15T15:11:20.728Z,7.67
2019-05-15T15:13:53.870Z,7.83
2019-05-15T15:16:29.218Z,7.70
2019-05-15T15:19:01.562Z,7.40
2019-05-15T15:21:38.193Z,4.78
2019-05-15T15:24:10.523Z,7.15
2019-05-15T15:26:43.398Z,5.70
2019-05-15T15:29:16.210Z,6.40
2019-05-15T15:31:49.610Z,5.78
2019-05-15T15:34:22.498Z,5.37
2019-05-15T15:36:57.582Z,9.88
2019-05-15T15:39:30.055Z,7.53
2019-05-15T15:42:02.893Z,5.83
2019-05-15T15:44:37.997Z,7.37
2019-05-15T15:47:10.639Z,5.90
2019-05-15T15:49:43.445Z,7.70
2019-05-15T15:52:18.109Z,6.10
2019-05-15T15:54:51.110Z,6.95
2019-05-15T15:57:23.960Z,8.10
2019-05-15T15:59:56.793Z,7.53
2019-05-15T16:02:29.622Z,4.72
2019-05-15T16:05:02.453Z,6.45
2019-05-15T16:07:37.781Z,6.28
2019-05-15T16:10:10.842Z,7.87
2019-05-15T16:12:43.768Z,8.00
2019-05-15T16:15:18.011Z,9.38
2019-05-15T16:17:51.143Z,7.50
2019-05-15T16:20:24.093Z,8.10
2019-05-15T16:22:59.168Z,9.08
2019-05-15T16:25:31.768Z,7.70
2019-05-15T16:28:04.659Z,7.58
2019-05-15T16:30:50.363Z,8.05
2019-05-15T16:33:12.748Z,6.83
2019-05-15T16:35:45.802Z,7.70
2019-05-15T16:38:19.233Z,7.60
2019-05-15T16:40:52.471Z,8.55
2019-05-15T16:43:25.412Z,7.25
2019-05-15T16:45:58.867Z,8.70
2019-05-15T16:48:32.105Z,7.00
2019-05-15T16:51:05.033Z,7.87
2019-05-15T16:53:38.356Z,10.13
2019-05-15T16:56:11.414Z,9.73
2019-05-15T16:58:44.374Z,8.10
2019-05-15T17:01:18.706Z,10.58
2019-05-15T17:03:51.854Z,11.97
2019-05-15T17:06:24.904Z,10.72
2019-05-15T17:08:58.041Z,10.95
2019-05-15T17:11:31.116Z,7.92
2019-05-15T17:14:04.053Z,8.53
2019-05-15T17:16:38.698Z,9.90
2019-05-15T17:19:12.105Z,7.95
2019-05-15T17:21:45.196Z,43.80
2019-05-15T17:24:18.390Z,9.78
2019-05-15T17:26:51.709Z,9.50
2019-05-15T17:29:24.972Z,6.78
2019-05-15T17:31:58.209Z,7.03
2019-05-15T17:34:31.111Z,8.28
2019-05-15T17:37:04.058Z,9.83
2019-05-15T17:39:38.920Z,10.70
2019-05-15T17:42:11.790Z,14.43
2019-05-15T17:44:44.842Z,7.33
2019-05-15T17:47:18.858Z,8.90
2019-05-15T17:49:51.916Z,10.00
2019-05-15T17:52:24.732Z,8.58
2019-05-15T17:54:59.326Z,8.68
2019-05-15T17:57:32.436Z,8.58
2019-05-15T18:00:08.352Z,8.83
2019-05-15T18:02:40.696Z,9.55
2019-05-15T18:05:14.713Z,9.95
2019-05-15T18:07:49.480Z,12.88
2019-05-15T18:10:22.464Z,11.12
2019-05-15T18:12:55.484Z,13.28
2019-05-15T18:15:28.432Z,13.78
2019-05-15T18:18:01.319Z,14.10
2019-05-15T18:20:34.458Z,9.90
2019-05-15T18:23:08.451Z,9.80
2019-05-15T18:25:41.689Z,9.55
2019-05-15T18:28:14.766Z,8.15
2019-05-15T18:30:47.957Z,9.08
2019-05-15T18:33:21.165Z,6.75
2019-05-15T18:35:54.048Z,6.12
2019-05-15T18:38:28.254Z,5.55
2019-05-15T18:41:03.787Z,8.63
2019-05-15T18:43:37.762Z,7.70
2019-05-15T18:46:11.030Z,4.95
2019-05-15T18:48:44.030Z,8.15
2019-05-15T18:51:17.168Z,7.17
2019-05-15T18:53:51.763Z,5.87
2019-05-15T18:56:25.276Z,8.68
2019-05-15T18:58:58.490Z,7.22
2019-05-15T19:01:31.585Z,7.70
2019-05-15T19:04:04.587Z,7.83
2019-05-15T19:06:38.835Z,5.60
2019-05-15T19:09:11.850Z,10.63
2019-05-15T19:11:44.903Z,13.55
2019-05-15T19:14:19.180Z,11.63
2019-05-15T19:16:52.812Z,6.97
2019-05-15T19:19:28.122Z,10.18
2019-05-15T19:22:00.596Z,8.28
2019-05-15T19:24:33.571Z,11.08
2019-05-15T19:27:07.990Z,7.85
2019-05-15T19:29:41.196Z,10.00
2019-05-15T19:32:14.085Z,9.23
2019-05-15T19:34:48.375Z,8.58
2019-05-15T19:37:21.619Z,9.08
2019-05-15T19:39:54.439Z,10.08
2019-05-15T19:42:28.678Z,9.38
2019-05-15T19:45:01.841Z,13.03
2019-05-15T19:47:35.224Z,10.13
2019-05-15T19:50:09.948Z,7.83
2019-05-15T19:52:43.631Z,9.73
2019-05-15T19:55:17.673Z,8.45
2019-05-15T19:57:51.468Z,6.95
2019-05-15T20:00:24.475Z,6.83
2019-05-15T20:02:58.189Z,8.78
2019-05-15T20:05:32.576Z,9.30
2019-05-15T20:08:07.808Z,8.63
2019-05-15T20:10:41.974Z,6.80
2019-05-15T20:13:14.965Z,6.90
2019-05-15T20:15:48.576Z,7.37
2019-05-15T20:18:21.728Z,7.00
2019-05-15T20:20:55.619Z,5.42
2019-05-15T20:23:28.974Z,6.58
2019-05-15T20:26:01.932Z,6.20
2019-05-15T20:28:35.022Z,4.37
2019-05-15T20:31:08.085Z,4.72
2019-05-15T20:33:41.022Z,4.97
2019-05-15T20:36:13.995Z,5.28
2019-05-15T20:38:48.421Z,6.05
2019-05-15T20:41:22.371Z,5.92
2019-05-15T20:43:55.271Z,5.15
2019-05-15T20:46:28.920Z,6.28
2019-05-15T20:49:01.980Z,5.87
2019-05-15T20:51:35.895Z,5.45
2019-05-15T20:54:09.489Z,8.58
2019-05-15T20:56:42.406Z,4.60
2019-05-15T20:59:15.295Z,4.75
2019-05-15T21:01:48.360Z,4.25
2019-05-15T21:04:23.437Z,5.75
2019-05-15T21:06:57.472Z,4.65
2019-05-15T21:09:30.700Z,3.60
2019-05-15T21:12:03.929Z,4.10
2019-05-15T21:14:39.773Z,3.67
2019-05-15T21:17:11.408Z,4.08
2019-05-15T21:19:44.236Z,5.03
2019-05-15T21:22:18.051Z,4.35
2019-05-15T21:24:51.013Z,5.53
2019-05-15T21:27:24.812Z,5.65
2019-05-15T21:29:59.237Z,4.05
2019-05-15T21:32:32.357Z,3.98
2019-05-15T21:35:05.764Z,5.45
2019-05-15T21:37:39.227Z,4.62
2019-05-15T21:40:12.396Z,5.92
2019-05-15T21:42:45.224Z,4.33
2019-05-15T21:45:18.591Z,5.00
2019-05-15T21:47:51.555Z,5.20
2019-05-15T21:50:24.352Z,3.33
2019-05-15T21:52:58.217Z,4.97
2019-05-15T21:55:31.228Z,4.50
2019-05-15T21:58:04.396Z,4.60
2019-05-15T22:00:41.638Z,4.50
2019-05-15T22:03:14.717Z,4.20
2019-05-15T22:05:48.763Z,3.12
2019-05-15T22:08:21.977Z,3.70
2019-05-15T22:10:54.778Z,4.25
2019-05-15T22:13:31.172Z,3.77
2019-05-15T22:16:02.342Z,4.72
2019-05-15T22:18:38.466Z,5.15
2019-05-15T22:21:11.311Z,4.10
2019-05-15T22:23:44.209Z,3.67
2019-05-15T22:26:18.450Z,3.50
2019-05-15T22:28:51.652Z,3.87
2019-05-15T22:31:25.514Z,3.67
2019-05-15T22:33:58.613Z,3.80
2019-05-15T22:36:31.414Z,3.75
2019-05-15T22:39:05.648Z,3.90
2019-05-15T22:41:38.954Z,3.80
2019-05-15T22:44:11.871Z,3.75
2019-05-15T22:46:44.874Z,4.03
2019-05-15T22:49:18.284Z,3.50
2019-05-15T22:51:51.346Z,3.65
2019-05-15T22:54:24.128Z,3.70
2019-05-15T22:56:57.708Z,3.17
2019-05-15T22:59:30.817Z,4.03
2019-05-15T23:02:03.895Z,3.17
2019-05-15T23:04:37.884Z,2.65
2019-05-15T23:07:11.041Z,3.20
2019-05-15T23:09:45.151Z,3.95
2019-05-15T23:12:19.334Z,3.40
2019-05-15T23:14:52.349Z,4.30
2019-05-15T23:17:27.661Z,3.25
2019-05-15T23:20:00.104Z,3.05
2019-05-15T23:22:33.559Z,3.40
2019-05-15T23:25:06.876Z,2.75
2019-05-15T23:27:39.782Z,2.90
2019-05-15T23:30:13.594Z,3.42
2019-05-15T23:32:48.630Z,3.50
2019-05-15T23:35:21.030Z,3.20
2019-05-15T23:37:54.084Z,2.90
2019-05-15T23:40:28.799Z,3.22
2019-05-15T23:43:01.340Z,3.40
2019-05-15T23:45:34.262Z,3.65
2019-05-15T23:48:07.161Z,2.98
2019-05-15T23:50:40.074Z,3.20
2019-05-15T23:53:16.549Z,3.72
2019-05-15T23:55:48.344Z,3.33
2019-05-15T23:58:21.148Z,4.53
